Pagrindinis puslapis
METAR-TAF:

METAR-TAF

Oro uostai :

Dalaso/Fortvorto tarptautinis oro uostas

Dalasas-Fortvortas, Teksasas, Jungtinės Amerikos Valstijos

platuma: 32-53-49N, ilguma: 097-01-19W, Aukštis: 183 m

Dabartinis oras

Ataskaita buvo paskelbta 1 valandą ir 3 minutes, ne 21:53 UTC
Vėjas 8 kt iš Rytų, svyruoja nuo Šiaurės Rytų ir Pietryčių
Temperatūra 31°C
Drėgmė 36%
Slėgis 1018 hPa
Matomumas: 16.1 km
Mažai debesys ne aukštis 6500 ft
Mažai debesys ne aukštis 30000 ft

METAR: KDFW 302153Z 09008KT 040V130 10SM FEW065 FEW300 31/14 A3005 RMK AO2 SLP168 T03060144 $

Laikas: 17:56 (22:56 UTC)

Prognozė

Ataskaita buvo paskelbta 2 valandos ir 6 minutes, ne 20:50 UTC
Prognozė galioja nuo 30 metu 21 UTC su 31 metu 24 UTC
Vėjas 7 kt iš Rytų/Pietryčių
Matomumas: 10 km
Mažai debesys ne aukštis 5000 ft
Mažai debesys ne aukštis 25000 ft

TAF: KDFW 302050Z 3021/3124 11007KT P6SM FEW050 FEW250

Orai ataskaitas ir orų prognozės (METAR, TAF).

turimą stotys yra geltonos ir raudonos taškus žemėlapyje.

Perkelti pele per norėdami pamatyti stoties vardą.

Tada spustelėkite, norėdami matyti oro stebėjimo ir prognozės.

Norėdami pakeisti žemėlapį: spustelėkite ant žalios mygtukų su juodo kryžiaus žemyn,; žalią mygtuką su brūkšneliu, jei norite nutolinti; arba žalių rodyklių gretimoms žemėlapius.


METAR-TAF: